GW3962 Weather Reports


Display with metric or nautical units.
time (UTC)temp
F
wind
direction
speed
MPH
gust
MPH
rain 1hr
in
rain 24hr
in
rain mn
in
humidity
%
barometer
mb
20240224121417 50 253 2.0 2.0 0.00 0.00 0.00 61 1023.9
20240224120917 50 260 2.0 2.0 0.00 0.00 0.00 61 1024.1
20240224120415 50 264 1.0 2.0 0.00 0.00 0.00 61 1024.1
20240224115915 50 264 1.0 1.0 0.00 0.00 0.00 61 1023.9
20240224115413 50 264 1.0 1.0 0.00 0.00 0.00 61 1023.6
20240224114911 51 264 1.0 1.0 0.00 0.00 0.00 60 1023.6
20240224114410 51 264 1.0 1.0 0.00 0.00 0.00 59 1023.7
20240224113909 51 264 1.0 2.0 0.00 0.00 0.00 59 1023.7
20240224113407 51 261 1.0 2.0 0.00 0.00 0.00 58 1024.0
20240224112905 51 264 1.0 2.0 0.00 0.00 0.00 59 1023.9
20240224112359 50 269 1.0 1.0 0.00 0.00 0.00 60 1023.7
20240224111857 50 268 1.0 2.0 0.00 0.00 0.00 61 1023.6
20240224111355 51 266 2.0 2.0 0.00 0.00 0.00 61 1024.0
20240224110853 51 264 2.0 2.0 0.00 0.00 0.00 60 1023.6
20240224110352 48 272 1.0 2.0 0.00 0.00 0.00 65 1023.5
20240224105851 47 261 1.0 1.0 0.00 0.00 0.00 69 1023.7
20240224105350 47 242 2.0 2.0 0.00 0.00 0.00 69 1023.3
20240224104849 47 235 3.0 3.0 0.00 0.00 0.00 69 1023.5
20240224104347 48 240 2.0 2.0 0.00 0.00 0.00 68 1023.5
20240224103846 49 237 3.0 3.0 0.00 0.00 0.00 66 1023.7
20240224103346 50 230 4.0 5.0 0.00 0.00 0.00 63 1023.4
20240224102844 50 234 3.0 3.0 0.00 0.00 0.00 62 1023.3
20240224102343 51 249 2.0 2.0 0.00 0.00 0.00 61 1023.4
20240224101842 52 262 2.0 2.0 0.00 0.00 0.00 58 1023.7
20240224101342 52 276 1.0 2.0 0.00 0.00 0.00 56 1023.5
20240224100841 50 258 1.0 1.0 0.00 0.00 0.00 60 1023.6
20240224100341 50 258 1.0 1.0 0.00 0.00 0.00 62 1023.5
20240224095840 50 243 2.0 2.0 0.00 0.00 0.00 64 1023.6
20240224095339 50 235 3.0 3.0 0.00 0.00 0.00 64 1023.6
20240224094838 50 236 3.0 3.0 0.00 0.00 0.00 63 1023.6
20240224094337 50 242 3.0 3.0 0.00 0.00 0.00 62 1023.6
20240224093836 50 245 2.0 2.0 0.00 0.00 0.00 62 1023.7
20240224093334 50 237 2.0 2.0 0.00 0.00 0.00 63 1023.9
20240224092834 50 253 2.0 2.0 0.00 0.00 0.00 63 1023.5
20240224092333 50 260 1.0 2.0 0.00 0.00 0.00 64 1023.9
20240224091832 50 272 1.0 2.0 0.00 0.00 0.00 65 1024.1
20240224091330 49 246 2.0 2.0 0.00 0.00 0.00 65 1023.9
20240224090829 49 252 2.0 2.0 0.00 0.00 0.00 66 1024.0
20240224090327 50 247 3.0 3.0 0.00 0.00 0.00 66 1024.0
20240224085825 50 234 4.0 5.0 0.00 0.00 0.00 64 1023.5
20240224085324 53 253 2.0 2.0 0.00 0.00 0.00 59 1023.9
20240224084823 57 289 0.0 1.0 0.00 0.00 0.00 51 1023.5
20240224084322 57 342 2.0 2.0 0.00 0.00 0.00 48 1023.6
20240224083820 57 20 1.0 1.0 0.00 0.00 0.00 48 1023.9
20240224083319 57 333 1.0 2.0 0.00 0.00 0.00 48 1023.6
20240224082818 57 345 2.0 2.0 0.00 0.00 0.00 49 1024.1
20240224082318 57 338 1.0 1.0 0.00 0.00 0.00 49 1024.0
20240224081817 57 350 1.0 1.0 0.00 0.00 0.00 48 1023.7
20240224081315 57 10 1.0 1.0 0.00 0.00 0.00 49 1024.0
20240224080815 57 356 1.0 1.0 0.00 0.00 0.00 49 1023.7
20240224080313 57 0 1.0 1.0 0.00 0.00 0.00 50 1023.9
20240224075812 57 8 1.0 1.0 0.00 0.00 0.00 50 1023.6
20240224075310 57 359 2.0 3.0 0.00 0.00 0.00 50 1023.9
20240224074808 56 353 1.0 2.0 0.00 0.00 0.00 51 1023.7
20240224074308 56 347 0.0 0.0 0.00 0.00 0.00 51 1023.5
20240224073807 57 7 0.0 1.0 0.00 0.00 0.00 51 1023.6
20240224073306 56 1 1.0 2.0 0.00 0.00 0.00 52 1023.6
20240224072805 56 18 1.0 1.0 0.00 0.00 0.00 51 1023.6
20240224072306 57 17 1.0 2.0 0.00 0.00 0.00 52 1023.3
20240224071803 57 5 1.0 2.0 0.00 0.00 0.00 52 1023.2
20240224071301 57 12 3.0 3.0 0.00 0.00 0.00 52 1023.1
20240224070801 57 24 2.0 2.0 0.00 0.00 0.00 52 1023.2
20240224070300 57 34 2.0 2.0 0.00 0.00 0.00 52 1023.2
20240224065758 58 30 3.0 3.0 0.00 0.00 0.00 51 1023.3
20240224065257 58 36 3.0 3.0 0.00 0.00 0.00 50 1023.4
20240224064757 58 10 3.0 3.0 0.00 0.00 0.00 50 1023.3
20240224064255 58 30 2.0 2.0 0.00 0.00 0.00 51 1023.3
20240224063755 58 20 3.0 3.0 0.00 0.00 0.00 51 1023.4
20240224063253 58 9 1.0 1.0 0.00 0.00 0.00 51 1023.5
20240224062751 58 340 0.0 0.0 0.00 0.00 0.00 51 1023.4
20240224062249 58 319 0.0 0.0 0.00 0.00 0.00 50 1023.6
20240224061748 58 319 0.0 1.0 0.00 0.00 0.00 50 1023.7
20240224061244 59 332 1.0 1.0 0.00 0.00 0.00 50 1023.6
20240224060724 59 15 1.0 1.0 0.00 0.00 0.00 50 1023.6
20240224060224 59 4 2.0 3.0 0.00 0.00 0.00 49 1023.7
20240224055724 58 355 1.0 1.0 0.00 0.00 0.00 49 1023.5
20240224055223 58 2 1.0 2.0 0.00 0.00 0.00 49 1023.5
20240224054722 59 21 1.0 2.0 0.00 0.00 0.00 49 1023.2
20240224054221 58 18 2.0 2.0 0.00 0.00 0.00 50 1023.4
20240224053720 58 12 1.0 2.0 0.00 0.00 0.00 50 1023.7
20240224053218 58 21 1.0 1.0 0.00 0.00 0.00 49 1023.4
20240224052718 58 324 2.0 3.0 0.00 0.00 0.00 49 1023.4
20240224052217 58 347 1.0 2.0 0.00 0.00 0.00 49 1023.4
20240224051716 59 6 0.0 1.0 0.00 0.00 0.00 48 1023.7
20240224051214 59 26 3.0 3.0 0.00 0.00 0.00 49 1023.6
20240224050713 59 28 2.0 3.0 0.00 0.00 0.00 49 1023.4
20240224050213 59 20 3.0 5.0 0.00 0.00 0.00 50 1023.2
20240224045713 59 28 2.0 2.0 0.00 0.00 0.00 49 1023.2
20240224045212 59 19 2.0 3.0 0.00 0.00 0.00 50 1023.4
20240224044711 59 6 2.0 2.0 0.00 0.00 0.00 50 1023.4
20240224044210 59 21 2.0 3.0 0.00 0.00 0.00 50 1023.3
20240224043710 59 44 2.0 2.0 0.00 0.00 0.00 49 1023.2
20240224043209 60 59 3.0 3.0 0.00 0.00 0.00 47 1023.4
20240224042707 60 16 3.0 3.0 0.00 0.00 0.00 49 1023.5
20240224042205 60 359 1.0 1.0 0.00 0.00 0.00 49 1023.7
20240224041704 60 346 0.0 0.0 0.00 0.00 0.00 49 1023.6
20240224041202 60 350 0.0 1.0 0.00 0.00 0.00 49 1023.7
20240224040701 60 358 0.0 1.0 0.00 0.00 0.00 49 1023.9
20240224040200 60 351 1.0 1.0 0.00 0.00 0.00 47 1023.6
20240224035658 60 3 1.0 2.0 0.00 0.00 0.00 46 1024.0
20240224035156 61 354 1.0 1.0 0.00 0.00 0.00 46 1023.7
20240224034654 61 337 1.0 1.0 0.00 0.00 0.00 46 1023.5
20240224034154 61 354 1.0 2.0 0.00 0.00 0.00 45 1023.5
20240224033652 61 36 1.0 2.0 0.00 0.00 0.00 46 1023.2
20240224033150 61 22 2.0 2.0 0.00 0.00 0.00 46 1022.9
20240224032649 61 26 1.0 2.0 0.00 0.00 0.00 46 1022.9
20240224032148 61 355 1.0 1.0 0.00 0.00 0.00 46 1023.0
20240224031647 62 18 2.0 2.0 0.00 0.00 0.00 46 1023.0
20240224031146 62 21 1.0 2.0 0.00 0.00 0.00 45 1023.0
20240224030645 62 11 1.0 2.0 0.00 0.00 0.00 45 1022.7
20240224030144 62 12 2.0 2.0 0.00 0.00 0.00 45 1022.6
20240224025642 62 29 3.0 3.0 0.00 0.00 0.00 44 1022.6
20240224025141 62 339 2.0 2.0 0.00 0.00 0.00 44 1022.8
20240224024641 62 13 2.0 2.0 0.00 0.00 0.00 44 1022.8
20240224024139 63 4 1.0 2.0 0.00 0.00 0.00 43 1022.8
20240224023639 63 18 2.0 3.0 0.00 0.00 0.00 43 1022.5
20240224023139 63 19 2.0 2.0 0.00 0.00 0.00 42 1022.5
20240224022637 63 350 2.0 3.0 0.00 0.00 0.00 42 1022.4
20240224022136 63 37 2.0 2.0 0.00 0.00 0.00 42 1022.2
20240224021635 64 29 4.0 5.0 0.00 0.00 0.00 42 1022.2
20240224021133 64 42 2.0 2.0 0.00 0.00 0.00 42 1022.3
20240224020631 64 27 3.0 5.0 0.00 0.00 0.00 41 1022.2
20240224020130 64 14 2.0 2.0 0.00 0.00 0.00 41 1022.0
20240224015629 64 13 3.0 3.0 0.00 0.00 0.00 41 1021.9
20240224015127 64 332 1.0 2.0 0.00 0.00 0.00 40 1022.0
20240224014626 64 3 0.0 1.0 0.00 0.00 0.00 40 1022.0
20240224014101 65 11 1.0 2.0 0.00 0.00 0.00 40 1021.9
20240224013559 65 2 0.0 1.0 0.00 0.00 0.00 39 1021.9
20240224013059 65 15 1.0 1.0 0.00 0.00 0.00 39 1022.0
20240224012558 65 341 1.0 1.0 0.00 0.00 0.00 38 1021.9
20240224012056 65 15 1.0 2.0 0.00 0.00 0.00 38 1021.9
20240224011555 65 12 1.0 1.0 0.00 0.00 0.00 39 1021.8
20240224011053 65 3 1.0 1.0 0.00 0.00 0.00 39 1021.5
20240224010553 65 9 1.0 1.0 0.00 0.00 0.00 39 1021.6
20240224010052 65 10 0.0 1.0 0.00 0.00 0.00 39 1021.4
20240224005552 66 346 1.0 1.0 0.00 0.00 0.00 38 1021.4
20240224005052 66 358 0.0 1.0 0.00 0.00 0.00 38 1021.6
20240224004550 66 345 1.0 1.0 0.00 0.00 0.00 37 1021.4
20240224004048 67 9 1.0 1.0 0.00 0.00 0.00 37 1021.5
20240224003546 67 4 1.0 1.0 0.00 0.00 0.00 36 1021.3
20240224003046 67 14 2.0 3.0 0.00 0.00 0.00 35 1021.2
20240224002546 68 4 1.0 1.0 0.00 0.00 0.00 34 1021.3
20240224002045 68 0 2.0 2.0 0.00 0.00 0.00 34 1021.2
20240224001545 69 326 2.0 2.0 0.00 0.00 0.00 33 1021.2
20240224001043 69 333 1.0 2.0 0.00 0.00 0.00 32 1021.4
20240224000542 70 14 1.0 2.0 0.00 0.00 0.00 31 1021.3
20240224000038 70 24 2.0 3.0 0.00 0.00 0.00 32 1020.9
20240223235537 71 299 3.0 5.0 0.00 0.00 0.00 32 1020.9
20240223235036 71 356 2.0 3.0 0.00 0.00 0.00 31 1020.7
20240223234536 72 317 2.0 2.0 0.00 0.00 0.00 31 1020.9
20240223234036 72 19 3.0 5.0 0.00 0.00 0.00 30 1020.7
20240223233535 73 349 3.0 3.0 0.00 0.00 0.00 29 1020.6
20240223233034 73 1 3.0 3.0 0.00 0.00 0.00 29 1020.7
20240223232533 73 318 2.0 2.0 0.00 0.00 0.00 30 1020.5
20240223232032 73 23 3.0 5.0 0.00 0.00 0.00 30 1020.5
20240223231531 73 313 7.0 9.0 0.00 0.00 0.00 28 1020.7
20240223231030 73 32 3.0 6.0 0.00 0.00 0.00 29 1020.5
20240223230529 73 27 6.0 10.0 0.00 0.00 0.00 28 1020.6
20240223230027 73 359 1.0 2.0 0.00 0.00 0.00 30 1020.4
20240223225527 72 310 6.0 7.0 0.00 0.00 0.00 29 1020.2
20240223225027 72 359 7.0 8.0 0.00 0.00 0.00 30 1020.4
20240223224525 74 315 8.0 10.0 0.00 0.00 0.00 29 1020.1
20240223224024 73 348 5.0 7.0 0.00 0.00 0.00 30 1020.3
20240223223522 74 340 4.0 6.0 0.00 0.00 0.00 29 1020.0
20240223223020 74 350 6.0 10.0 0.00 0.00 0.00 30 1019.9
20240223222520 73 37 4.0 5.0 0.00 0.00 0.00 31 1020.0
20240223222018 74 313 7.0 9.0 0.00 0.00 0.00 30 1020.2
20240223221518 74 38 2.0 3.0 0.00 0.00 0.00 30 1020.2
20240223221018 74 55 5.0 8.0 0.00 0.00 0.00 29 1020.0
20240223220517 72 7 6.0 8.0 0.00 0.00 0.00 30 1020.1
20240223220015 72 262 7.0 7.0 0.00 0.00 0.00 30 1020.5
20240223215515 72 339 7.0 9.0 0.00 0.00 0.00 30 1020.1
20240223215013 72 9 5.0 9.0 0.00 0.00 0.00 29 1020.0
20240223214511 73 340 10.0 13.0 0.00 0.00 0.00 28 1020.1
20240223214009 73 306 4.0 7.0 0.00 0.00 0.00 30 1020.0
20240223213509 73 333 4.0 6.0 0.00 0.00 0.00 29 1020.2
20240223213007 73 330 11.0 15.0 0.00 0.00 0.00 27 1020.3
20240223212506 73 7 3.0 3.0 0.00 0.00 0.00 28 1020.3
20240223212006 73 40 5.0 8.0 0.00 0.00 0.00 29 1020.3
20240223211504 74 0 3.0 5.0 0.00 0.00 0.00 28 1020.4
20240223211002 73 43 6.0 8.0 0.00 0.00 0.00 28 1020.4
20240223210502 73 336 7.0 10.0 0.00 0.00 0.00 28 1020.5
20240223205959 74 328 12.0 16.0 0.00 0.00 0.00 28 1020.3
20240223205459 73 32 3.0 6.0 0.00 0.00 0.00 29 1020.5
20240223204957 73 342 10.0 13.0 0.00 0.00 0.00 30 1020.6
20240223204457 73 306 3.0 5.0 0.00 0.00 0.00 28 1020.6
20240223203956 74 316 3.0 5.0 0.00 0.00 0.00 28 1020.6
20240223203455 73 24 1.0 2.0 0.00 0.00 0.00 29 1020.5
20240223202955 73 34 3.0 3.0 0.00 0.00 0.00 30 1020.5
20240223202454 73 45 3.0 7.0 0.00 0.00 0.00 28 1020.9
20240223201954 73 289 2.0 2.0 0.00 0.00 0.00 29 1020.7
20240223201453 73 50 6.0 7.0 0.00 0.00 0.00 29 1020.9
20240223200952 73 264 3.0 5.0 0.00 0.00 0.00 29 1020.6
20240223200451 74 335 3.0 3.0 0.00 0.00 0.00 29 1020.7
20240223195949 72 271 3.0 3.0 0.00 0.00 0.00 30 1021.2
20240223195449 73 30 6.0 8.0 0.00 0.00 0.00 30 1021.1
20240223194947 72 27 7.0 8.0 0.00 0.00 0.00 31 1021.2
20240223194446 71 332 7.0 8.0 0.00 0.00 0.00 31 1021.3
20240223193945 72 337 3.0 6.0 0.00 0.00 0.00 31 1021.4
20240223193443 72 16 4.0 6.0 0.00 0.00 0.00 30 1021.6
20240223192941 72 353 8.0 9.0 0.00 0.00 0.00 29 1021.4
20240223192441 72 13 4.0 5.0 0.00 0.00 0.00 31 1021.4
20240223191941 72 36 4.0 6.0 0.00 0.00 0.00 31 1021.8
20240223191439 71 35 4.0 9.0 0.00 0.00 0.00 30 1021.8
20240223190938 71 28 6.0 9.0 0.00 0.00 0.00 31 1021.9
20240223190438 71 330 3.0 5.0 0.00 0.00 0.00 29 1021.8
20240223185936 71 43 9.0 11.0 0.00 0.00 0.00 31 1022.2
20240223185436 71 24 7.0 9.0 0.00 0.00 0.00 31 1022.2
20240223184934 71 27 4.0 6.0 0.00 0.00 0.00 31 1022.4
20240223184433 71 323 3.0 6.0 0.00 0.00 0.00 31 1022.3
20240223183931 71 10 6.0 9.0 0.00 0.00 0.00 32 1022.4
20240223183430 71 16 7.0 9.0 0.00 0.00 0.00 31 1022.2
20240223182929 70 359 6.0 11.0 0.00 0.00 0.00 31 1022.4
20240223182426 69 34 4.0 7.0 0.00 0.00 0.00 34 1022.7
20240223181925 70 327 6.0 10.0 0.00 0.00 0.00 33 1022.8
20240223181425 70 55 11.0 13.0 0.00 0.00 0.00 33 1022.9
20240223180923 69 47 7.0 10.0 0.00 0.00 0.00 33 1022.9
20240223180411 69 32 4.0 7.0 0.00 0.00 0.00 34 1022.9
20240223175910 69 65 4.0 7.0 0.00 0.00 0.00 35 1023.0
20240223175411 70 49 8.0 13.0 0.00 0.00 0.00 34 1022.8
20240223174910 68 356 8.0 11.0 0.00 0.00 0.00 35 1022.9
20240223174409 69 16 7.0 10.0 0.00 0.00 0.00 35 1023.2
20240223173908 68 50 10.0 11.0 0.00 0.00 0.00 36 1023.1
20240223173408 68 35 8.0 9.0 0.00 0.00 0.00 37 1023.3
20240223172906 68 335 6.0 9.0 0.00 0.00 0.00 36 1023.7
20240223172406 69 34 2.0 2.0 0.00 0.00 0.00 37 1023.4
20240223171905 68 63 10.0 13.0 0.00 0.00 0.00 38 1023.7
20240223171405 67 46 16.0 20.0 0.00 0.00 0.00 39 1023.5
20240223170903 68 58 14.0 20.0 0.00 0.00 0.00 38 1023.7
20240223170402 68 32 11.0 15.0 0.00 0.00 0.00 38 1023.5
20240223165900 68 81 6.0 8.0 0.00 0.00 0.00 39 1023.4
20240223165359 68 44 5.0 9.0 0.00 0.00 0.00 39 1023.5
20240223164858 68 42 7.0 9.0 0.00 0.00 0.00 39 1023.5
20240223164357 67 2 7.0 9.0 0.00 0.00 0.00 40 1023.4
20240223163856 66 40 7.0 11.0 0.00 0.00 0.00 41 1023.4
20240223163356 67 40 8.0 13.0 0.00 0.00 0.00 41 1023.3
20240223162854 67 7 3.0 6.0 0.00 0.00 0.00 41 1023.2
20240223162352 66 36 5.0 7.0 0.00 0.00 0.00 42 1023.3
20240223161851 66 338 3.0 7.0 0.00 0.00 0.00 42 1023.0
20240223161350 66 71 12.0 14.0 0.00 0.00 0.00 42 1022.9
20240223160850 66 0 7.0 9.0 0.00 0.00 0.00 42 1023.0
20240223160350 66 62 3.0 5.0 0.00 0.00 0.00 43 1022.9
20240223155848 65 50 6.0 10.0 0.00 0.00 0.00 44 1023.3
20240223155346 64 92 7.0 10.0 0.00 0.00 0.00 45 1023.1
20240223154845 64 35 5.0 8.0 0.00 0.00 0.00 45 1023.0
20240223154344 64 216 8.0 13.0 0.00 0.00 0.00 44 1023.1
20240223153844 64 42 5.0 7.0 0.00 0.00 0.00 46 1022.8
20240223153342 63 54 6.0 9.0 0.00 0.00 0.00 46 1022.9
20240223152841 63 68 4.0 7.0 0.00 0.00 0.00 47 1022.7
20240223152339 63 32 5.0 6.0 0.00 0.00 0.00 48 1022.6
20240223151837 62 38 4.0 9.0 0.00 0.00 0.00 50 1022.6
20240223151336 61 44 7.0 10.0 0.00 0.00 0.00 50 1022.3
20240223150834 62 57 8.0 10.0 0.00 0.00 0.00 50 1022.4
20240223150333 62 30 2.0 2.0 0.00 0.00 0.00 51 1022.3
20240223145831 61 32 5.0 8.0 0.00 0.00 0.00 51 1022.3
20240223145331 60 5 4.0 6.0 0.00 0.00 0.00 52 1022.3
20240223144829 61 354 3.0 5.0 0.00 0.00 0.00 52 1022.2
20240223144329 60 25 2.0 2.0 0.00 0.00 0.00 53 1022.3
20240223143827 60 14 5.0 8.0 0.00 0.00 0.00 53 1022.1
20240223143327 59 20 4.0 7.0 0.00 0.00 0.00 54 1022.2
20240223142826 59 43 4.0 5.0 0.00 0.00 0.00 55 1021.8
20240223142325 58 23 5.0 7.0 0.00 0.00 0.00 55 1022.0
20240223141824 58 338 3.0 3.0 0.00 0.00 0.00 56 1021.9
20240223141323 57 46 5.0 9.0 0.00 0.00 0.00 57 1021.7
20240223140823 57 339 5.0 8.0 0.00 0.00 0.00 58 1021.7
20240223140321 57 328 6.0 9.0 0.00 0.00 0.00 59 1021.6
20240223135819 56 1 4.0 7.0 0.00 0.00 0.00 59 1021.3
20240223135317 56 20 3.0 6.0 0.00 0.00 0.00 60 1021.3
20240223134816 56 289 3.0 3.0 0.00 0.00 0.00 60 1021.3
20240223134316 56 328 3.0 5.0 0.00 0.00 0.00 60 1021.0
20240223133815 55 26 6.0 9.0 0.00 0.00 0.00 61 1020.9
20240223133314 55 35 4.0 6.0 0.00 0.00 0.00 62 1021.2
20240223132813 55 347 4.0 6.0 0.00 0.00 0.00 62 1021.0
20240223132312 55 27 4.0 9.0 0.00 0.00 0.00 62 1020.9
20240223131757 55 44 3.0 5.0 0.00 0.00 0.00 62 1020.7
20240223131255 54 341 4.0 6.0 0.00 0.00 0.00 63 1020.7
20240223130753 54 15 4.0 6.0 0.00 0.00 0.00 63 1020.5
20240223130251 54 32 4.0 6.0 0.00 0.00 0.00 63 1020.4
20240223125750 54 308 6.0 10.0 0.00 0.00 0.00 63 1020.2
20240223125248 54 17 3.0 5.0 0.00 0.00 0.00 64 1020.2
20240223124746 54 14 4.0 6.0 0.00 0.00 0.00 64 1020.3
20240223124246 54 19 4.0 8.0 0.00 0.00 0.00 64 1020.0
20240223123745 54 25 4.0 6.0 0.00 0.00 0.00 64 1019.9
20240223123244 54 318 3.0 5.0 0.00 0.00 0.00 64 1020.0
20240223122742 54 353 3.0 3.0 0.00 0.00 0.00 64 1019.7
20240223122242 54 24 3.0 5.0 0.00 0.00 0.00 65 1019.5
20240223121740 54 36 3.0 3.0 0.00 0.00 0.00 65 1019.6